If you wish to contribute or participate in the discussions about articles you are invited to join SKYbrary as a registered user

 Actions

Cape Romanzof LRRS Airport

From SKYbrary Wiki

PACZ
Airport
ICAO: PACZ – IATA: CZF
Summary
Name Cape Romanzof LRRS Airport
Region North America
Territory Alaska US.gif
Location Cape Romanzof, Alaska
Serving Cape Romanzof
Elevation 141.427 m
464 ft
464 ft141.427 m
Type medium airport
Coordinates 61° 46' 49.07" N, 166° 2' 19.49" W
Runways
Designator Length Width Surface ROPS
2/20 1216 m3,989.501 ft
41 m134.514 ft
GVL /


METAR
Observation PACZ 140555Z AUTO VRB05KT 10SM CLR 03/M10 A2979 RMK AO2 SLP096 T00251097 10057 20023 57014
Station Cape Romanzof, Cape Romanzof LRRS Airport
Date/Time 14 October 2019 05:55:00
Wind direction °
Wind speed 05 kts
Lowest cloud amount n/a
Temperature 2.5°C
Dew point
Humidity 40%
QNH hPa
Weather condition n/a

Maps

Terrain

Loading map...

Airport Layout

Loading map...


Accidents & Serious Incidents at or in vicinity of PACZ

None on SKYbrary